createdAt,value
2019-04-20T00:00:23.173Z,48.91
2019-04-20T00:01:28.056Z,49.01
2019-04-20T00:02:25.114Z,49.01
2019-04-20T00:03:23.652Z,48.91
2019-04-20T00:04:26.973Z,49.14
2019-04-20T00:05:23.254Z,49.04
2019-04-20T00:06:21.900Z,49.04
2019-04-20T00:07:24.640Z,49.04
2019-04-20T00:08:26.536Z,49.14
2019-04-20T00:09:26.517Z,49.14
2019-04-20T00:10:24.275Z,49.24
2019-04-20T00:11:28.180Z,49.34
2019-04-20T00:12:34.320Z,49.34
2019-04-20T00:13:33.244Z,49.65
2019-04-20T00:14:27.685Z,49.67
2019-04-20T00:15:23.958Z,49.57
2019-04-20T00:16:22.962Z,49.67
2019-04-20T00:17:22.042Z,49.77
2019-04-20T00:18:28.049Z,49.67
2019-04-20T00:19:33.686Z,49.77
2019-04-20T00:20:29.000Z,49.88
2019-04-20T00:21:22.782Z,49.85
2019-04-20T00:22:24.629Z,49.85
2019-04-20T00:23:29.316Z,50.09
2019-04-20T00:24:27.631Z,50.29
2019-04-20T00:25:25.446Z,50.18
2019-04-20T00:26:44.292Z,50.18
2019-04-20T00:27:42.862Z,50.39
2019-04-20T00:28:39.775Z,50.90
2019-04-20T00:29:40.389Z,50.59
2019-04-20T00:30:43.482Z,50.70
2019-04-20T00:31:35.389Z,50.93
2019-04-20T00:32:37.678Z,50.72
2019-04-20T00:33:37.353Z,50.82
2019-04-20T00:34:29.505Z,50.93
2019-04-20T00:35:23.030Z,50.72
2019-04-20T00:36:22.202Z,51.03
2019-04-20T00:37:21.524Z,51.13
2019-04-20T00:38:22.898Z,50.93
2019-04-20T00:39:21.867Z,51.13
2019-04-20T00:40:21.558Z,51.13
2019-04-20T00:41:23.019Z,51.23
2019-04-20T00:42:32.521Z,51.13
2019-04-20T00:43:27.924Z,51.23
2019-04-20T00:44:28.726Z,51.44
2019-04-20T00:45:27.225Z,51.54
2019-04-20T00:46:30.073Z,51.44
2019-04-20T00:47:34.316Z,51.54
2019-04-20T00:48:33.788Z,51.44
2019-04-20T00:49:34.883Z,51.54
2019-04-20T00:50:34.284Z,51.64
2019-04-20T00:51:35.160Z,51.75
2019-04-20T00:52:32.868Z,51.75
2019-04-20T00:53:31.445Z,51.77
2019-04-20T00:54:22.365Z,51.87
2019-04-20T00:55:21.338Z,51.98
2019-04-20T00:56:22.364Z,52.18
2019-04-20T00:57:33.938Z,52.28
2019-04-20T00:58:28.853Z,52.39
2019-04-20T00:59:35.541Z,52.49
2019-04-20T01:00:36.871Z,52.90
2019-04-20T01:01:46.108Z,52.82
2019-04-20T01:02:39.781Z,52.82
2019-04-20T01:03:39.087Z,53.03
2019-04-20T01:04:40.996Z,53.12
2019-04-20T01:05:39.434Z,53.23
2019-04-20T01:06:36.619Z,53.33
2019-04-20T01:07:32.920Z,53.54
2019-04-20T01:08:23.348Z,53.33
2019-04-20T01:09:22.271Z,53.33
2019-04-20T01:10:21.654Z,53.33
2019-04-20T01:11:28.799Z,53.54
2019-04-20T01:12:26.303Z,53.44
2019-04-20T01:13:23.851Z,53.64
2019-04-20T01:14:28.632Z,53.64
2019-04-20T01:15:29.022Z,53.64
2019-04-20T01:16:33.519Z,53.85
2019-04-20T01:17:22.068Z,53.77
2019-04-20T01:18:21.064Z,53.87
2019-04-20T01:19:21.052Z,53.56
2019-04-20T01:20:22.646Z,53.87
2019-04-20T01:21:24.792Z,53.97
2019-04-20T01:22:25.630Z,54.18
2019-04-20T01:23:24.374Z,54.08
2019-04-20T01:24:29.621Z,54.49
2019-04-20T01:25:28.989Z,54.72
2019-04-20T01:26:23.030Z,54.72
2019-04-20T01:27:32.572Z,54.82
2019-04-20T01:28:39.967Z,54.92
2019-04-20T01:29:32.422Z,55.13
2019-04-20T01:30:30.210Z,55.36
2019-04-20T01:31:29.301Z,55.46
2019-04-20T01:32:33.457Z,55.66
2019-04-20T01:33:34.409Z,55.57
2019-04-20T01:34:35.855Z,55.87
2019-04-20T01:35:40.951Z,56.08
2019-04-20T01:36:43.036Z,56.28
2019-04-20T01:37:34.192Z,56.41
2019-04-20T01:38:36.001Z,56.41
2019-04-20T01:39:28.403Z,56.10
2019-04-20T01:40:23.141Z,56.21
2019-04-20T01:41:20.828Z,55.98
2019-04-20T01:42:21.378Z,56.18
2019-04-20T01:43:20.789Z,56.18
2019-04-20T01:44:26.148Z,55.98
2019-04-20T01:45:28.880Z,55.77
2019-04-20T01:46:24.002Z,55.87
2019-04-20T01:47:23.820Z,55.57
2019-04-20T01:48:27.429Z,55.33
2019-04-20T01:49:25.604Z,55.13
2019-04-20T01:50:26.155Z,55.13
2019-04-20T01:51:26.928Z,55.02
2019-04-20T01:52:27.002Z,54.82
2019-04-20T01:53:39.347Z,54.92
2019-04-20T01:54:42.368Z,55.02
2019-04-20T01:55:38.898Z,55.13
2019-04-20T01:56:36.139Z,55.02
2019-04-20T01:57:29.844Z,54.92
2019-04-20T01:58:42.047Z,54.82
2019-04-20T01:59:37.080Z,54.72
2019-04-20T02:00:28.394Z,54.82
2019-04-20T02:01:27.192Z,54.82
2019-04-20T02:02:24.465Z,55.02
2019-04-20T02:03:24.070Z,55.13
2019-04-20T02:04:29.197Z,55.23
2019-04-20T02:05:29.126Z,55.13
2019-04-20T02:06:23.882Z,55.33
2019-04-20T02:07:28.438Z,55.46
2019-04-20T02:08:24.948Z,55.46
2019-04-20T02:09:25.702Z,55.57
2019-04-20T02:10:31.063Z,55.77
2019-04-20T02:11:27.547Z,55.98
2019-04-20T02:12:26.144Z,56.51
2019-04-20T02:13:21.576Z,56.51
2019-04-20T02:14:28.666Z,56.62
2019-04-20T02:15:30.083Z,56.49
2019-04-20T02:16:28.627Z,56.51
2019-04-20T02:17:33.106Z,56.21
2019-04-20T02:18:31.811Z,56.21
2019-04-20T02:19:34.410Z,56.21
2019-04-20T02:20:38.984Z,56.41
2019-04-20T02:21:37.927Z,56.62
2019-04-20T02:22:38.370Z,57.23
2019-04-20T02:23:33.644Z,57.23
2019-04-20T02:24:21.687Z,57.16
2019-04-20T02:25:20.651Z,57.36
2019-04-20T02:26:20.309Z,57.26
2019-04-20T02:27:30.839Z,57.36
2019-04-20T02:28:37.207Z,57.36
2019-04-20T02:29:47.452Z,57.67
2019-04-20T02:30:58.022Z,57.67
2019-04-20T02:32:08.491Z,57.98
2019-04-20T02:33:01.098Z,58.08
2019-04-20T02:34:03.921Z,57.98
2019-04-20T02:34:55.618Z,58.29
2019-04-20T02:36:01.540Z,58.11
2019-04-20T02:36:58.680Z,58.52
2019-04-20T02:38:08.407Z,58.52
2019-04-20T02:39:11.739Z,59.03
2019-04-20T02:39:57.985Z,59.14
2019-04-20T02:41:03.844Z,59.03
2019-04-20T02:41:57.936Z,59.17
2019-04-20T02:42:57.327Z,59.27
2019-04-20T02:45:01.302Z,59.58
2019-04-20T02:45:52.985Z,59.78
2019-04-20T02:47:14.419Z,59.78
2019-04-20T02:47:57.236Z,59.78
2019-04-20T02:49:01.286Z,59.89
2019-04-20T02:50:07.454Z,59.89
2019-04-20T02:50:50.131Z,60.19
2019-04-20T02:51:55.914Z,60.19
2019-04-20T02:53:00.126Z,60.61
2019-04-20T02:54:02.155Z,60.43
2019-04-20T02:54:53.577Z,60.63
2019-04-20T02:55:58.587Z,60.94
2019-04-20T02:56:58.876Z,61.05
2019-04-20T02:59:14.741Z,60.94
2019-04-20T03:00:45.764Z,60.94
2019-04-20T03:01:40.877Z,61.25
2019-04-20T03:02:36.240Z,60.94
2019-04-20T03:03:30.657Z,61.25
2019-04-20T03:04:32.627Z,61.15
2019-04-20T03:05:32.831Z,61.46
2019-04-20T03:06:32.851Z,61.35
2019-04-20T03:07:34.111Z,61.46
2019-04-20T03:08:38.040Z,61.35
2019-04-20T03:09:40.031Z,61.35
2019-04-20T03:10:46.326Z,61.35
2019-04-20T03:11:55.356Z,61.46
2019-04-20T03:12:44.818Z,61.66
2019-04-20T03:13:45.629Z,61.87
2019-04-20T03:14:35.245Z,61.98
2019-04-20T03:15:42.317Z,62.21
2019-04-20T03:16:38.738Z,62.21
2019-04-20T03:17:47.302Z,62.31
2019-04-20T03:18:41.521Z,62.52
2019-04-20T03:19:37.689Z,62.62
2019-04-20T03:20:43.495Z,62.82
2019-04-20T03:21:44.758Z,62.62
2019-04-20T03:23:08.933Z,62.93
2019-04-20T03:23:55.224Z,62.93
2019-04-20T03:24:46.784Z,63.13
2019-04-20T03:25:44.817Z,63.37
2019-04-20T03:26:36.722Z,63.37
2019-04-20T03:27:36.450Z,63.45
2019-04-20T03:28:41.401Z,63.13
2019-04-20T03:29:45.704Z,63.34
2019-04-20T03:32:03.831Z,63.89
2019-04-20T03:34:03.473Z,63.24
2019-04-20T03:35:02.347Z,63.27
2019-04-20T03:35:43.358Z,63.47
2019-04-20T03:36:46.979Z,63.57
2019-04-20T03:37:42.582Z,63.89
2019-04-20T03:38:41.119Z,63.78
2019-04-20T03:39:39.095Z,63.99
2019-04-20T03:40:36.439Z,63.78
2019-04-20T03:41:30.216Z,63.78
2019-04-20T03:42:20.497Z,64.09
2019-04-20T03:43:20.189Z,64.19
2019-04-20T03:44:25.526Z,64.19
2019-04-20T03:45:23.083Z,64.29
2019-04-20T03:46:30.078Z,64.50
2019-04-20T03:47:31.449Z,64.40
2019-04-20T03:48:39.322Z,64.19
2019-04-20T03:49:48.294Z,64.09
2019-04-20T03:50:45.438Z,64.19
2019-04-20T03:51:40.771Z,64.29
2019-04-20T03:52:36.746Z,64.95
2019-04-20T03:53:41.043Z,65.15
2019-04-20T03:54:34.609Z,65.36
2019-04-20T03:55:43.129Z,65.36
2019-04-20T03:56:41.956Z,65.25
2019-04-20T03:57:43.770Z,65.36
2019-04-20T03:58:39.021Z,65.46
2019-04-20T03:59:43.728Z,65.77
2019-04-20T04:00:37.585Z,65.98
2019-04-20T04:02:02.149Z,66.08
2019-04-20T04:02:54.693Z,66.08
2019-04-20T04:03:51.590Z,66.39
2019-04-20T04:04:38.967Z,66.52
2019-04-20T04:05:35.776Z,66.39
2019-04-20T04:06:31.206Z,66.39
2019-04-20T04:07:30.329Z,66.91
2019-04-20T04:08:27.773Z,66.28
2019-04-20T04:09:33.150Z,66.28
2019-04-20T04:10:30.362Z,66.39
2019-04-20T04:11:41.504Z,66.60
2019-04-20T04:12:27.386Z,66.49
2019-04-20T04:13:20.921Z,66.80
2019-04-20T04:14:19.816Z,66.70
2019-04-20T04:15:19.130Z,66.60
2019-04-20T04:16:22.009Z,66.39
2019-04-20T04:17:26.493Z,66.18
2019-04-20T04:18:27.767Z,66.28
2019-04-20T04:19:25.180Z,66.28
2019-04-20T04:20:21.453Z,66.18
2019-04-20T04:21:29.631Z,66.39
2019-04-20T04:22:37.767Z,66.08
2019-04-20T04:23:38.210Z,66.18
2019-04-20T04:24:31.681Z,65.88
2019-04-20T04:25:29.755Z,65.88
2019-04-20T04:26:36.689Z,65.77
2019-04-20T04:27:44.431Z,65.98
2019-04-20T04:28:39.669Z,66.18
2019-04-20T04:29:43.035Z,66.39
2019-04-20T04:30:33.092Z,66.63
2019-04-20T04:31:39.113Z,66.63
2019-04-20T04:33:00.475Z,66.52
2019-04-20T04:33:53.256Z,66.63
2019-04-20T04:34:38.932Z,66.39
2019-04-20T04:35:31.152Z,66.42
2019-04-20T04:36:36.067Z,66.52
2019-04-20T04:37:36.308Z,66.42
2019-04-20T04:38:42.383Z,66.52
2019-04-20T04:39:47.464Z,66.63
2019-04-20T04:40:49.847Z,66.31
2019-04-20T04:41:38.082Z,66.42
2019-04-20T04:42:42.293Z,66.42
2019-04-20T04:43:40.123Z,66.52
2019-04-20T04:44:34.329Z,66.52
2019-04-20T04:45:24.027Z,66.83
2019-04-20T04:46:20.674Z,67.03
2019-04-20T04:47:19.785Z,67.03
2019-04-20T04:48:25.318Z,66.83
2019-04-20T04:49:28.465Z,67.03
2019-04-20T04:50:24.867Z,67.24
2019-04-20T04:51:25.699Z,67.03
2019-04-20T04:52:29.315Z,67.03
2019-04-20T04:53:30.344Z,67.03
2019-04-20T04:54:29.191Z,66.94
2019-04-20T04:55:31.167Z,67.14
2019-04-20T04:56:23.306Z,66.94
2019-04-20T04:57:20.600Z,66.80
2019-04-20T04:58:19.506Z,66.91
2019-04-20T04:59:19.279Z,66.60
2019-04-20T05:00:25.558Z,66.91
2019-04-20T05:01:24.015Z,67.00
2019-04-20T05:02:24.661Z,66.91
2019-04-20T05:03:33.660Z,66.70
2019-04-20T05:04:40.508Z,66.49
2019-04-20T05:05:37.787Z,66.56
2019-04-20T05:06:34.429Z,66.46
2019-04-20T05:07:35.260Z,66.36
2019-04-20T05:08:26.158Z,66.25
2019-04-20T05:09:20.961Z,66.15
2019-04-20T05:10:19.498Z,66.15
2019-04-20T05:11:19.590Z,65.95
2019-04-20T05:12:23.559Z,65.71
2019-04-20T05:13:19.923Z,65.40
2019-04-20T05:14:24.504Z,65.40
2019-04-20T05:15:32.455Z,65.50
2019-04-20T05:17:39.446Z,65.19
2019-04-20T05:18:45.154Z,65.30
2019-04-20T05:19:42.888Z,65.30
2019-04-20T05:20:41.673Z,65.09
2019-04-20T05:21:41.184Z,64.99
2019-04-20T05:22:40.919Z,64.65
2019-04-20T05:23:31.726Z,64.44
2019-04-20T05:24:34.819Z,64.34
2019-04-20T05:25:36.186Z,64.24
2019-04-20T05:26:44.527Z,64.14
2019-04-20T05:27:44.091Z,64.34
2019-04-20T05:28:33.485Z,64.03
2019-04-20T05:29:24.799Z,63.79
2019-04-20T05:30:20.199Z,63.39
2019-04-20T05:31:18.621Z,63.49
2019-04-20T05:32:29.471Z,63.49
2019-04-20T05:33:27.863Z,63.28
2019-04-20T05:34:45.199Z,62.56
2019-04-20T05:35:37.880Z,62.02
2019-04-20T05:36:41.690Z,61.71
2019-04-20T05:37:43.486Z,61.51
2019-04-20T05:38:42.006Z,60.96
2019-04-20T05:39:39.735Z,61.17
2019-04-20T05:40:44.450Z,60.86
2019-04-20T05:41:37.109Z,60.96
2019-04-20T05:42:35.718Z,60.65
2019-04-20T05:43:38.336Z,60.24
2019-04-20T05:44:44.414Z,60.24
2019-04-20T05:45:34.060Z,60.14
2019-04-20T05:46:37.254Z,60.14
2019-04-20T05:47:40.192Z,60.75
2019-04-20T05:48:38.177Z,60.45
2019-04-20T05:49:37.946Z,60.55
2019-04-20T05:50:36.287Z,60.45
2019-04-20T05:51:39.671Z,60.55
2019-04-20T05:52:56.304Z,60.75
2019-04-20T05:53:41.248Z,60.83
2019-04-20T05:54:39.233Z,60.63
2019-04-20T05:55:40.280Z,59.80
2019-04-20T05:56:42.308Z,59.80
2019-04-20T05:57:42.452Z,59.57
2019-04-20T05:58:38.464Z,59.36
2019-04-20T05:59:49.369Z,59.16
2019-04-20T06:00:43.569Z,58.83
2019-04-20T06:01:49.987Z,58.92
2019-04-20T06:02:36.757Z,58.83
2019-04-20T06:03:38.143Z,58.49
2019-04-20T06:04:54.520Z,58.28
2019-04-20T06:05:49.124Z,58.07
2019-04-20T06:06:37.984Z,57.75
2019-04-20T06:07:40.014Z,57.13
2019-04-20T06:08:45.277Z,57.33
2019-04-20T06:09:42.353Z,56.90
2019-04-20T06:10:38.450Z,56.79
2019-04-20T06:11:52.356Z,56.49
2019-04-20T06:12:45.885Z,56.18
2019-04-20T06:13:38.270Z,56.35
2019-04-20T06:15:46.745Z,55.13
2019-04-20T06:16:54.004Z,54.82
2019-04-20T06:17:51.522Z,54.90
2019-04-20T06:18:40.198Z,55.62
2019-04-20T06:19:44.179Z,53.87
2019-04-20T06:20:50.335Z,54.38
2019-04-20T06:22:11.374Z,53.56
2019-04-20T06:22:53.052Z,53.64
2019-04-20T06:23:59.464Z,53.54
2019-04-20T06:24:53.104Z,53.13
2019-04-20T06:26:11.089Z,52.42
2019-04-20T06:26:56.548Z,52.29
2019-04-20T06:27:51.175Z,52.39
2019-04-20T06:28:42.902Z,52.19
2019-04-20T06:29:49.843Z,52.06
2019-04-20T06:30:45.601Z,52.37
2019-04-20T06:31:48.659Z,51.86
2019-04-20T06:32:52.787Z,51.65
2019-04-20T06:34:07.562Z,51.24
2019-04-20T06:34:51.873Z,51.45
2019-04-20T06:36:49.903Z,51.01
2019-04-20T06:37:55.116Z,50.91
2019-04-20T06:39:00.427Z,50.91
2019-04-20T06:40:59.398Z,50.78
2019-04-20T06:42:53.913Z,50.07
2019-04-20T06:43:55.771Z,50.17
2019-04-20T06:44:44.053Z,50.15
2019-04-20T06:46:01.444Z,50.04
2019-04-20T06:47:01.309Z,50.04
2019-04-20T06:47:52.023Z,50.15
2019-04-20T06:48:55.014Z,50.15
2019-04-20T06:49:43.369Z,50.35
2019-04-20T06:50:44.365Z,49.92
2019-04-20T06:51:48.906Z,50.12
2019-04-20T06:52:45.404Z,50.12
2019-04-20T06:53:47.063Z,50.12
2019-04-20T06:54:48.720Z,49.92
2019-04-20T06:55:52.445Z,50.12
2019-04-20T06:56:49.952Z,50.12
2019-04-20T06:57:49.916Z,50.00
2019-04-20T06:58:53.798Z,49.90
2019-04-20T06:59:48.916Z,49.79
2019-04-20T07:00:46.809Z,49.79
2019-04-20T07:01:56.590Z,49.69
2019-04-20T07:04:06.709Z,49.26
2019-04-20T07:05:07.058Z,49.37
2019-04-20T07:05:55.192Z,49.46
2019-04-20T07:06:56.519Z,49.57
2019-04-20T07:07:54.593Z,49.59
2019-04-20T07:08:57.354Z,49.38
2019-04-20T07:11:02.226Z,49.67
2019-04-20T07:11:46.737Z,49.77
2019-04-20T07:12:45.065Z,49.46
2019-04-20T07:13:39.203Z,49.67
2019-04-20T07:14:41.433Z,49.46
2019-04-20T07:15:45.157Z,49.16
2019-04-20T07:16:48.750Z,48.96
2019-04-20T07:17:55.767Z,48.52
2019-04-20T07:18:49.765Z,48.32
2019-04-20T07:19:48.744Z,48.11
2019-04-20T07:20:56.723Z,48.22
2019-04-20T07:22:02.228Z,48.02
2019-04-20T07:22:54.347Z,48.40
2019-04-20T07:23:57.606Z,48.19
2019-04-20T07:24:56.783Z,47.79
2019-04-20T07:25:52.865Z,48.10
2019-04-20T07:26:49.215Z,47.69
2019-04-20T07:27:53.638Z,47.36
2019-04-20T07:28:52.568Z,47.36
2019-04-20T07:29:52.384Z,47.26
2019-04-20T07:30:51.930Z,47.05
2019-04-20T07:31:44.304Z,46.72
2019-04-20T07:33:52.392Z,46.62
2019-04-20T07:34:51.735Z,46.72
2019-04-20T07:35:49.364Z,46.30
2019-04-20T07:36:57.413Z,46.09
2019-04-20T07:38:10.315Z,46.11
2019-04-20T07:38:53.847Z,46.32
2019-04-20T07:39:54.824Z,46.32
2019-04-20T07:40:42.881Z,46.42
2019-04-20T07:41:57.274Z,46.20
2019-04-20T07:42:53.837Z,46.09
2019-04-20T07:44:01.162Z,46.01
2019-04-20T07:44:56.692Z,46.42
2019-04-20T07:45:48.801Z,46.22
2019-04-20T07:47:04.363Z,46.01
2019-04-20T07:48:50.691Z,45.99
2019-04-20T07:49:45.793Z,45.99
2019-04-20T07:50:40.788Z,45.79
2019-04-20T07:51:33.914Z,45.79
2019-04-20T07:52:40.781Z,45.91
2019-04-20T07:53:43.085Z,46.22
2019-04-20T07:55:06.055Z,46.30
2019-04-20T07:56:49.499Z,46.20
2019-04-20T07:57:44.121Z,45.97
2019-04-20T07:58:38.816Z,46.07
2019-04-20T07:59:46.850Z,45.97
2019-04-20T08:00:56.147Z,46.07
2019-04-20T08:01:56.140Z,45.76
2019-04-20T08:02:48.835Z,45.15
2019-04-20T08:03:50.435Z,45.34
2019-04-20T08:04:46.315Z,45.34
2019-04-20T08:05:42.020Z,45.34
2019-04-20T08:06:39.622Z,45.34
2019-04-20T08:07:40.149Z,45.14
2019-04-20T08:08:43.936Z,45.03
2019-04-20T08:09:39.352Z,44.71
2019-04-20T08:10:39.431Z,44.60
2019-04-20T08:12:55.627Z,44.60
2019-04-20T08:13:51.027Z,44.51
2019-04-20T08:14:55.459Z,44.30
2019-04-20T08:15:49.942Z,44.60
2019-04-20T08:17:05.220Z,44.60
2019-04-20T08:17:52.577Z,44.59
2019-04-20T08:18:49.906Z,44.28
2019-04-20T08:19:45.416Z,44.38
2019-04-20T08:20:48.153Z,44.48
2019-04-20T08:21:48.595Z,44.08
2019-04-20T08:22:47.967Z,44.38
2019-04-20T08:23:55.652Z,44.48
2019-04-20T08:24:43.992Z,44.68
2019-04-20T08:25:39.574Z,44.87
2019-04-20T08:26:34.479Z,44.87
2019-04-20T08:27:27.722Z,43.96
2019-04-20T08:28:37.217Z,43.43
2019-04-20T08:29:44.254Z,43.02
2019-04-20T08:30:41.371Z,43.12
2019-04-20T08:31:42.794Z,43.32
2019-04-20T08:32:45.116Z,43.32
2019-04-20T08:33:54.882Z,43.63
2019-04-20T08:34:47.542Z,43.32
2019-04-20T08:35:55.093Z,42.92
2019-04-20T08:36:53.938Z,42.80
2019-04-20T08:38:01.796Z,42.69
2019-04-20T08:39:58.785Z,43.41
2019-04-20T08:40:49.014Z,43.20
2019-04-20T08:41:50.388Z,43.61
2019-04-20T08:43:00.599Z,43.10
2019-04-20T08:43:53.104Z,43.41
2019-04-20T08:45:00.105Z,42.98
2019-04-20T08:45:57.094Z,43.29
2019-04-20T08:47:01.261Z,43.38
2019-04-20T08:47:52.768Z,43.29
2019-04-20T08:48:46.912Z,42.96
2019-04-20T08:49:49.160Z,42.86
2019-04-20T08:50:54.134Z,42.76
2019-04-20T08:52:00.149Z,43.06
2019-04-20T08:53:47.129Z,43.26
2019-04-20T08:54:41.490Z,43.47
2019-04-20T08:55:43.796Z,42.94
2019-04-20T08:56:36.124Z,42.63
2019-04-20T08:57:27.448Z,42.33
2019-04-20T08:58:27.287Z,42.33
2019-04-20T08:59:27.289Z,42.33
2019-04-20T09:00:33.297Z,42.33
2019-04-20T09:01:31.060Z,42.55
2019-04-20T09:02:28.044Z,42.66
2019-04-20T09:03:31.717Z,42.66
2019-04-20T09:04:38.572Z,42.96
2019-04-20T09:05:41.346Z,42.33
2019-04-20T09:06:41.382Z,41.83
2019-04-20T09:07:30.606Z,41.93
2019-04-20T09:08:36.659Z,41.40
2019-04-20T09:09:49.664Z,41.00
2019-04-20T09:10:42.589Z,41.00
2019-04-20T09:11:49.150Z,41.28
2019-04-20T09:12:39.514Z,41.28
2019-04-20T09:13:39.109Z,41.49
2019-04-20T09:14:28.702Z,41.56
2019-04-20T09:15:26.194Z,41.99
2019-04-20T09:16:38.165Z,42.09
2019-04-20T09:17:36.634Z,42.27
2019-04-20T09:18:36.372Z,41.87
2019-04-20T09:19:36.788Z,41.66
2019-04-20T09:20:36.763Z,41.66
2019-04-20T09:21:35.602Z,41.44
2019-04-20T09:22:38.769Z,41.85
2019-04-20T09:23:43.672Z,41.75
2019-04-20T09:24:52.726Z,41.75
2019-04-20T09:25:53.621Z,41.64
2019-04-20T09:26:43.164Z,41.24
2019-04-20T09:27:35.073Z,41.14
2019-04-20T09:28:36.328Z,40.92
2019-04-20T09:29:39.746Z,40.72
2019-04-20T09:30:37.568Z,40.52
2019-04-20T09:31:40.833Z,40.52
2019-04-20T09:32:39.742Z,40.41
2019-04-20T09:33:46.598Z,40.52
2019-04-20T09:34:46.590Z,40.72
2019-04-20T09:35:42.916Z,40.82
2019-04-20T09:36:42.127Z,40.82
2019-04-20T09:37:43.433Z,40.11
2019-04-20T09:38:40.657Z,39.99
2019-04-20T09:39:33.216Z,39.69
2019-04-20T09:40:44.869Z,39.26
2019-04-20T09:41:52.788Z,39.37
2019-04-20T09:42:26.962Z,39.48
2019-04-20T09:43:25.922Z,39.79
2019-04-20T09:44:31.483Z,39.59
2019-04-20T09:45:35.125Z,39.39
2019-04-20T09:46:31.450Z,39.57
2019-04-20T09:47:34.568Z,38.76
2019-04-20T09:48:38.140Z,38.15
2019-04-20T09:49:38.826Z,38.76
2019-04-20T09:50:46.329Z,38.66
2019-04-20T09:51:44.874Z,38.46
2019-04-20T09:52:44.447Z,38.54
2019-04-20T09:53:39.288Z,38.44
2019-04-20T09:54:46.016Z,38.44
2019-04-20T09:55:38.178Z,39.04
2019-04-20T09:56:39.532Z,38.34
2019-04-20T09:57:43.642Z,38.02
2019-04-20T09:58:45.407Z,37.92
2019-04-20T09:59:44.797Z,37.71
2019-04-20T10:00:43.763Z,38.02
2019-04-20T10:01:35.105Z,38.02
2019-04-20T10:02:30.789Z,38.42
2019-04-20T10:03:26.891Z,38.62
2019-04-20T10:04:25.831Z,38.93
2019-04-20T10:05:25.651Z,38.62
2019-04-20T10:06:30.015Z,38.73
2019-04-20T10:07:32.549Z,38.82
2019-04-20T10:08:26.615Z,38.12
2019-04-20T10:09:30.600Z,38.12
2019-04-20T10:10:32.311Z,37.92
2019-04-20T10:11:27.625Z,37.71
2019-04-20T10:12:26.047Z,37.80
2019-04-20T10:13:27.043Z,38.10
2019-04-20T10:14:26.830Z,38.20
2019-04-20T10:15:27.864Z,38.00
2019-04-20T10:16:25.991Z,37.70
2019-04-20T10:17:28.748Z,37.58
2019-04-20T10:18:25.981Z,37.58
2019-04-20T10:19:30.920Z,37.38
2019-04-20T10:20:31.298Z,36.77
2019-04-20T10:21:27.659Z,36.67
2019-04-20T10:22:26.787Z,36.98
2019-04-20T10:23:26.774Z,36.77
2019-04-20T10:24:26.444Z,36.98
2019-04-20T10:25:26.645Z,36.57
2019-04-20T10:26:26.887Z,36.67
2019-04-20T10:27:26.495Z,36.17
2019-04-20T10:28:25.678Z,36.15
2019-04-20T10:29:25.793Z,36.66
2019-04-20T10:30:26.325Z,36.76
2019-04-20T10:31:26.467Z,36.66
2019-04-20T10:32:33.087Z,36.74
2019-04-20T10:33:26.342Z,36.24
2019-04-20T10:34:26.418Z,36.24
2019-04-20T10:35:25.581Z,36.24
2019-04-20T10:36:25.710Z,36.35
2019-04-20T10:37:25.364Z,36.55
2019-04-20T10:38:25.594Z,36.54
2019-04-20T10:39:26.562Z,36.44
2019-04-20T10:40:39.292Z,36.24
2019-04-20T10:41:36.023Z,36.22
2019-04-20T10:42:26.294Z,35.91
2019-04-20T10:43:26.039Z,35.31
2019-04-20T10:44:25.211Z,35.61
2019-04-20T10:45:26.685Z,36.02
2019-04-20T10:46:26.907Z,35.30
2019-04-20T10:47:25.439Z,35.30
2019-04-20T10:48:25.192Z,35.70
2019-04-20T10:49:25.163Z,36.10
2019-04-20T10:50:25.166Z,35.70
2019-04-20T10:51:25.931Z,34.88
2019-04-20T10:52:25.695Z,34.67
2019-04-20T10:53:25.989Z,34.47
2019-04-20T10:54:25.103Z,34.17
2019-04-20T10:55:25.206Z,34.58
2019-04-20T10:56:25.422Z,34.67
2019-04-20T10:57:25.892Z,34.89
2019-04-20T10:58:25.275Z,34.79
2019-04-20T10:59:25.694Z,34.59
2019-04-20T11:00:25.686Z,34.79
2019-04-20T11:01:25.365Z,34.79
2019-04-20T11:02:25.895Z,34.89
2019-04-20T11:03:25.003Z,34.99
2019-04-20T11:04:26.248Z,34.89
2019-04-20T11:05:24.985Z,34.79
2019-04-20T11:06:24.992Z,34.69
2019-04-20T11:07:26.371Z,34.39
2019-04-20T11:08:24.974Z,33.08
2019-04-20T11:09:24.959Z,33.99
2019-04-20T11:10:28.804Z,34.19
2019-04-20T11:11:28.633Z,34.41
2019-04-20T11:12:26.201Z,34.19
2019-04-20T11:13:25.576Z,34.31
2019-04-20T11:14:31.371Z,34.09
2019-04-20T11:15:26.223Z,34.19
2019-04-20T11:16:24.870Z,34.39
2019-04-20T11:17:27.941Z,34.09
2019-04-20T11:18:27.251Z,34.07
2019-04-20T11:19:25.305Z,33.87
2019-04-20T11:20:25.552Z,33.67
2019-04-20T11:21:26.180Z,33.17
2019-04-20T11:22:26.191Z,33.27
2019-04-20T11:23:24.795Z,33.07
2019-04-20T11:24:26.070Z,33.27
2019-04-20T11:25:26.095Z,32.97
2019-04-20T11:26:24.754Z,32.97
2019-04-20T11:27:25.908Z,32.76
2019-04-20T11:28:25.957Z,32.15
2019-04-20T11:29:24.736Z,31.26
2019-04-20T11:30:25.885Z,31.86
2019-04-20T11:31:26.864Z,31.54
2019-04-20T11:32:26.262Z,31.45
2019-04-20T11:33:24.686Z,31.45
2019-04-20T11:34:28.605Z,31.54
2019-04-20T11:35:33.869Z,31.63
2019-04-20T11:36:25.684Z,31.43
2019-04-20T11:37:24.829Z,31.23
2019-04-20T11:38:26.002Z,31.33
2019-04-20T11:39:25.045Z,31.65
2019-04-20T11:40:24.611Z,31.54
2019-04-20T11:41:27.701Z,30.73
2019-04-20T11:42:25.677Z,30.73
2019-04-20T11:43:25.982Z,30.22
2019-04-20T11:44:27.828Z,30.02
2019-04-20T11:45:26.674Z,30.24
2019-04-20T11:46:24.972Z,30.84
2019-04-20T11:47:25.057Z,31.83
2019-04-20T11:48:25.454Z,30.93
2019-04-20T11:49:25.690Z,31.13
2019-04-20T11:50:25.316Z,31.03
2019-04-20T11:51:25.541Z,31.33
2019-04-20T11:52:25.396Z,31.13
2019-04-20T11:53:26.643Z,30.52
2019-04-20T11:54:24.485Z,30.93
2019-04-20T11:55:24.455Z,30.63
2019-04-20T11:56:29.430Z,30.63
2019-04-20T11:57:27.174Z,29.62
2019-04-20T11:58:24.420Z,29.62
2019-04-20T11:59:25.371Z,29.42
2019-04-20T12:00:25.302Z,29.42
2019-04-20T12:01:30.193Z,29.22
2019-04-20T12:02:34.092Z,29.22
2019-04-20T12:03:35.403Z,29.12
2019-04-20T12:04:36.137Z,29.02
2019-04-20T12:05:35.665Z,29.22
2019-04-20T12:06:26.585Z,29.12
2019-04-20T12:07:24.908Z,29.32
2019-04-20T12:08:25.046Z,29.22
2019-04-20T12:09:24.678Z,28.91
2019-04-20T12:10:26.049Z,28.70
2019-04-20T12:11:36.440Z,28.80
2019-04-20T12:12:35.006Z,28.30
2019-04-20T12:13:25.272Z,28.20
2019-04-20T12:14:24.909Z,28.82
2019-04-20T12:15:24.514Z,28.92
2019-04-20T12:16:25.593Z,29.00
2019-04-20T12:17:24.220Z,29.21
2019-04-20T12:18:25.345Z,29.11
2019-04-20T12:19:24.852Z,29.11
2019-04-20T12:20:25.028Z,28.80
2019-04-20T12:21:24.183Z,29.09
2019-04-20T12:22:24.191Z,28.69
2019-04-20T12:23:24.475Z,28.69
2019-04-20T12:24:24.652Z,28.99
2019-04-20T12:25:24.118Z,28.49
2019-04-20T12:26:24.864Z,28.89
2019-04-20T12:27:24.985Z,28.59
2019-04-20T12:28:25.265Z,28.28
2019-04-20T12:29:24.068Z,28.78
2019-04-20T12:30:24.067Z,28.38
2019-04-20T12:31:27.430Z,28.08
2019-04-20T12:32:28.209Z,28.28
2019-04-20T12:33:26.289Z,28.58
2019-04-20T12:34:24.567Z,28.28
2019-04-20T12:35:24.465Z,28.19
2019-04-20T12:36:24.010Z,28.19
2019-04-20T12:37:25.062Z,28.30
2019-04-20T12:38:25.196Z,28.41
2019-04-20T12:39:24.898Z,28.60
2019-04-20T12:40:24.053Z,28.89
2019-04-20T12:41:34.435Z,28.49
2019-04-20T12:42:25.331Z,28.39
2019-04-20T12:43:24.011Z,28.28
2019-04-20T12:44:23.923Z,28.09
2019-04-20T12:45:23.951Z,28.29
2019-04-20T12:46:25.163Z,28.39
2019-04-20T12:47:23.953Z,28.48
2019-04-20T12:48:23.980Z,28.28
2019-04-20T12:49:23.868Z,28.28
2019-04-20T12:50:23.838Z,28.38
2019-04-20T12:51:31.361Z,28.28
2019-04-20T12:52:26.207Z,27.97
2019-04-20T12:53:24.559Z,28.08
2019-04-20T12:54:24.810Z,28.08
2019-04-20T12:55:23.779Z,28.08
2019-04-20T12:56:24.485Z,28.08
2019-04-20T12:57:24.769Z,27.97
2019-04-20T12:58:23.750Z,27.47
2019-04-20T12:59:25.565Z,27.67
2019-04-20T13:00:23.749Z,27.58
2019-04-20T13:01:24.524Z,27.66
2019-04-20T13:02:25.037Z,27.36
2019-04-20T13:03:23.753Z,27.06
2019-04-20T13:04:24.683Z,27.37
2019-04-20T13:05:23.677Z,27.17
2019-04-20T13:06:23.895Z,26.87
2019-04-20T13:07:24.786Z,26.57
2019-04-20T13:08:32.969Z,27.09
2019-04-20T13:09:24.662Z,27.19
2019-04-20T13:10:23.651Z,27.47